Terminal Aerodrome Forecast
Issued by NWS Northern Indiana

Home | Current Version | Previous Version | Text Only | Print | Product List | Glossary On
Versions: 1 2 3 4 5 6 7 8 9 10 11 12 13 14 15 16
060
FTUS43 KIWX 010520
TAFFWA
TAF
KFWA 010520Z 0106/0206 02007KT P6SM FEW060
     FM011500 02010KT P6SM BKN050
     FM020100 03006KT P6SM FEW250=

USA.gov is the U.S. government's official web portal to all federal, state and local government web resources and services.